YQV weather

Yorkton Municipal Airport
Yorkton, Saskatchewan, Canada

Public forecast

Using degrees Celsius for public forecast. Weather courtesy of forecast.io.

Current aviation weather report (METAR) for Yorkton Municipal Airport

Retrieved 2020/07/10 09:00 UTC (42 minutes ago):

CYQV 100900Z AUTO 25006KT 9SM FEW140 12/12 A2993 RMK SLP143

Aviation forecast (TAF) for Yorkton Municipal Airport

Forecast is more than 6 hours old.

Retrieved 2020-07-10 00:00 UTC (10 hours ago):

TAF CYQV 092338Z 1000/1006 33015KT P6SM BKN060 TEMPO 1000/1006 SCT060 BECMG 1001/1003 30008KT RMK FCST BASED ON AUTO OBS NXT FCST WILL BE ISSUED AT 101145Z